createdAt,value
2022-12-18T00:02:38.821Z,48.20
2022-12-18T00:07:42.341Z,47.60
2022-12-18T00:12:47.986Z,49.72
2022-12-18T00:17:52.677Z,46.02
2022-12-18T00:22:58.303Z,44.00
2022-12-18T00:28:03.852Z,43.90
2022-12-18T00:33:08.584Z,46.36
2022-12-18T00:38:14.366Z,47.23
2022-12-18T00:43:17.990Z,46.78
2022-12-18T00:48:22.682Z,48.06
2022-12-18T00:53:28.219Z,46.52
2022-12-18T00:58:33.955Z,46.58
2022-12-18T01:03:43.796Z,43.64
2022-12-18T01:08:47.262Z,44.16
2022-12-18T01:13:54.356Z,42.21
2022-12-18T01:19:02.650Z,45.98
2022-12-18T01:24:06.511Z,41.89
2022-12-18T01:29:13.074Z,43.76
2022-12-18T01:34:17.941Z,53.99
2022-12-18T01:39:21.614Z,45.74
2022-12-18T01:44:44.280Z,39.74
2022-12-18T01:49:49.188Z,36.99
2022-12-18T01:54:54.094Z,38.07
2022-12-18T02:00:02.992Z,40.85
2022-12-18T02:05:20.982Z,38.70
2022-12-18T02:10:30.427Z,42.21
2022-12-18T02:15:41.494Z,40.32
2022-12-18T02:20:50.762Z,38.83
2022-12-18T02:26:10.388Z,58.02
2022-12-18T02:31:16.889Z,41.28
2022-12-18T02:36:22.669Z,43.29
2022-12-18T02:41:30.821Z,37.79
2022-12-18T02:46:40.688Z,39.33
2022-12-18T02:51:53.687Z,35.27
2022-12-18T02:57:08.792Z,36.44
2022-12-18T03:02:22.068Z,37.11
2022-12-18T03:07:28.568Z,36.13
2022-12-18T03:12:39.976Z,39.94
2022-12-18T03:17:50.989Z,37.26
2022-12-18T03:22:59.563Z,38.69
2022-12-18T03:28:10.535Z,39.25
2022-12-18T03:33:18.813Z,33.11
2022-12-18T03:38:23.536Z,34.17
2022-12-18T03:43:39.098Z,32.38
2022-12-18T03:48:53.770Z,33.69
2022-12-18T03:54:00.614Z,34.15
2022-12-18T03:59:16.032Z,35.06
2022-12-18T04:04:21.320Z,32.03
2022-12-18T04:09:25.470Z,33.09
2022-12-18T04:14:31.361Z,32.99
2022-12-18T04:19:35.886Z,33.81
2022-12-18T04:24:40.519Z,32.54
2022-12-18T04:29:52.070Z,32.30
2022-12-18T04:34:58.382Z,31.26
2022-12-18T04:40:01.959Z,32.36
2022-12-18T04:45:18.495Z,31.69
2022-12-18T04:50:22.082Z,31.29
2022-12-18T04:55:26.958Z,33.98
2022-12-18T05:00:31.641Z,36.23
2022-12-18T05:05:36.484Z,38.45
2022-12-18T05:10:42.170Z,35.66
2022-12-18T05:15:53.158Z,37.37
2022-12-18T05:20:59.141Z,37.21
2022-12-18T05:26:06.511Z,39.38
2022-12-18T05:31:11.411Z,40.32
2022-12-18T05:36:14.761Z,40.01
2022-12-18T05:41:18.069Z,41.88
2022-12-18T05:46:27.796Z,36.82
2022-12-18T05:51:31.157Z,36.83
2022-12-18T05:56:34.471Z,40.11
2022-12-18T06:01:44.369Z,36.23
2022-12-18T06:06:49.821Z,33.36
2022-12-18T06:11:53.376Z,33.13
2022-12-18T06:16:58.069Z,35.16
2022-12-18T06:22:03.539Z,35.52
2022-12-18T06:27:09.094Z,34.78
2022-12-18T06:32:13.891Z,37.13
2022-12-18T06:37:19.446Z,40.38
2022-12-18T06:42:27.419Z,41.22
2022-12-18T06:47:32.078Z,42.02
2022-12-18T06:52:35.639Z,45.45
2022-12-18T06:57:39.600Z,43.14
2022-12-18T07:02:44.372Z,44.68
2022-12-18T07:07:47.975Z,45.48
2022-12-18T07:12:51.471Z,49.00
2022-12-18T07:17:56.129Z,50.52
2022-12-18T07:22:59.758Z,51.09
2022-12-18T07:28:03.091Z,54.28
2022-12-18T07:33:10.259Z,61.78
2022-12-18T07:38:13.690Z,62.93
2022-12-18T07:43:17.016Z,54.24
2022-12-18T07:48:23.366Z,54.44
2022-12-18T07:53:28.940Z,51.66
2022-12-18T07:58:34.770Z,45.24
2022-12-18T08:03:42.729Z,45.91
2022-12-18T08:08:49.286Z,50.06
2022-12-18T08:13:55.919Z,47.92
2022-12-18T08:19:00.621Z,48.52
2022-12-18T08:24:03.995Z,48.85
2022-12-18T08:29:08.766Z,53.53
2022-12-18T08:34:13.501Z,60.10
2022-12-18T08:39:16.923Z,60.85
2022-12-18T08:44:37.961Z,59.74
2022-12-18T08:49:42.628Z,56.85
2022-12-18T08:54:45.987Z,48.59
2022-12-18T08:59:49.434Z,45.51
2022-12-18T09:04:57.513Z,46.21
2022-12-18T09:10:01.184Z,49.11
2022-12-18T09:15:04.806Z,45.08
2022-12-18T09:20:10.210Z,41.50
2022-12-18T09:25:18.513Z,48.47
2022-12-18T09:30:22.047Z,57.19
2022-12-18T09:35:27.259Z,55.94
2022-12-18T09:40:35.836Z,57.87
2022-12-18T09:45:44.004Z,58.12
2022-12-18T09:50:50.504Z,56.09
2022-12-18T09:55:58.141Z,57.28
2022-12-18T10:01:03.961Z,56.30
2022-12-18T10:06:16.598Z,55.84
2022-12-18T10:11:29.738Z,57.45
2022-12-18T10:16:39.610Z,58.92
2022-12-18T10:21:50.285Z,59.83
2022-12-18T10:27:02.829Z,61.12
2022-12-18T10:32:06.181Z,59.42
2022-12-18T10:37:18.172Z,68.17
2022-12-18T10:42:21.705Z,61.20
2022-12-18T10:47:27.613Z,61.80
2022-12-18T10:52:40.812Z,59.65
2022-12-18T10:57:48.539Z,59.60
2022-12-18T11:02:54.206Z,62.72
2022-12-18T11:08:01.577Z,60.80
2022-12-18T11:13:18.070Z,61.08
2022-12-18T11:18:29.059Z,67.87
2022-12-18T11:23:34.083Z,65.71
2022-12-18T11:28:43.189Z,68.48
2022-12-18T11:34:19.834Z,68.19
2022-12-18T11:39:20.239Z,68.08
2022-12-18T11:44:31.993Z,62.44
2022-12-18T11:49:37.089Z,68.69
2022-12-18T11:54:41.825Z,66.30
2022-12-18T11:59:55.822Z,70.11
2022-12-18T12:05:17.639Z,68.14
2022-12-18T12:10:31.495Z,79.58
2022-12-18T12:15:48.148Z,74.67
2022-12-18T12:21:03.581Z,69.28
2022-12-18T12:26:13.848Z,76.03
2022-12-18T12:31:26.242Z,70.20
2022-12-18T12:36:37.311Z,73.93
2022-12-18T12:42:03.833Z,70.22
2022-12-18T12:47:14.687Z,76.90
2022-12-18T12:52:29.415Z,82.91
2022-12-18T12:57:37.299Z,74.36
2022-12-18T13:02:47.247Z,74.19
2022-12-18T13:07:56.073Z,72.16
2022-12-18T13:13:09.154Z,72.68
2022-12-18T13:18:19.062Z,71.59
2022-12-18T13:23:30.145Z,71.73
2022-12-18T13:28:53.544Z,70.18
2022-12-18T13:34:28.075Z,70.93
2022-12-18T13:39:36.767Z,72.91
2022-12-18T13:44:43.006Z,71.46
2022-12-18T13:49:46.464Z,72.81
2022-12-18T13:54:54.321Z,69.67
2022-12-18T14:00:01.188Z,70.13
2022-12-18T14:05:05.306Z,67.78
2022-12-18T14:15:44.613Z,65.06
2022-12-18T14:20:52.961Z,68.79
2022-12-18T14:26:00.783Z,67.32
2022-12-18T14:31:19.764Z,70.81
2022-12-18T14:36:24.783Z,69.39
2022-12-18T14:41:28.817Z,68.02
2022-12-18T14:46:37.746Z,79.07
2022-12-18T14:51:50.460Z,77.36
2022-12-18T14:56:59.941Z,64.83
2022-12-18T15:02:12.601Z,71.21
2022-12-18T15:07:20.811Z,70.57
2022-12-18T15:12:31.952Z,60.62
2022-12-18T15:17:39.140Z,63.92
2022-12-18T15:22:42.564Z,67.26
2022-12-18T15:27:49.377Z,64.25
2022-12-18T15:33:14.069Z,72.88
2022-12-18T15:38:23.555Z,68.50
2022-12-18T15:43:37.623Z,68.26
2022-12-18T15:48:42.642Z,68.66
2022-12-18T15:53:48.669Z,67.72
2022-12-18T15:58:52.060Z,64.38
2022-12-18T16:03:55.598Z,62.50
2022-12-18T16:09:07.914Z,66.52
2022-12-18T16:14:22.739Z,62.37
2022-12-18T16:19:27.750Z,59.93
2022-12-18T16:24:37.067Z,59.20
2022-12-18T16:29:41.079Z,71.37
2022-12-18T16:34:47.868Z,63.38
2022-12-18T16:39:52.663Z,56.21
2022-12-18T16:44:58.391Z,58.37
2022-12-18T16:50:04.590Z,58.91
2022-12-18T16:55:10.328Z,55.92
2022-12-18T17:00:17.458Z,63.32
2022-12-18T17:05:20.811Z,57.62
2022-12-18T17:10:25.675Z,54.53
2022-12-18T17:15:29.381Z,55.50
2022-12-18T17:20:33.193Z,58.93
2022-12-18T17:25:40.593Z,58.45
2022-12-18T17:30:44.059Z,69.96
2022-12-18T17:35:47.918Z,63.22
2022-12-18T17:40:55.591Z,57.38
2022-12-18T17:46:03.598Z,56.94
2022-12-18T17:51:08.895Z,62.04
2022-12-18T17:56:15.839Z,68.18
2022-12-18T18:01:21.627Z,65.96
2022-12-18T18:06:25.392Z,59.26
2022-12-18T18:11:47.911Z,64.50
2022-12-18T18:16:54.404Z,59.91
2022-12-18T18:22:01.694Z,56.14
2022-12-18T18:27:07.748Z,62.68
2022-12-18T18:32:11.144Z,61.27
2022-12-18T18:37:14.562Z,60.89
2022-12-18T18:42:19.385Z,59.55
2022-12-18T18:47:22.741Z,59.82
2022-12-18T18:52:26.134Z,60.63
2022-12-18T18:57:30.891Z,56.54
2022-12-18T19:02:37.154Z,50.69
2022-12-18T19:07:40.682Z,49.51
2022-12-18T19:13:02.818Z,52.75
2022-12-18T19:18:06.188Z,56.93
2022-12-18T19:23:09.771Z,47.98
2022-12-18T19:28:22.145Z,44.99
2022-12-18T19:33:42.190Z,46.86
2022-12-18T19:38:49.686Z,44.01
2022-12-18T19:43:56.843Z,45.43
2022-12-18T19:49:00.814Z,49.53
2022-12-18T19:54:06.855Z,48.48
2022-12-18T19:59:11.725Z,49.51
2022-12-18T20:04:15.171Z,46.59
2022-12-18T20:09:19.287Z,41.94
2022-12-18T20:14:27.572Z,42.37
2022-12-18T20:19:31.683Z,43.39
2022-12-18T20:24:37.185Z,43.02
2022-12-18T20:29:43.568Z,46.46
2022-12-18T20:34:47.049Z,51.36
2022-12-18T20:39:51.748Z,52.25
2022-12-18T20:45:01.194Z,46.20
2022-12-18T20:50:04.938Z,43.04
2022-12-18T20:55:09.264Z,40.16
2022-12-18T21:00:18.881Z,37.72
2022-12-18T21:05:23.389Z,38.12
2022-12-18T21:10:26.707Z,36.88
2022-12-18T21:15:31.797Z,38.48
2022-12-18T21:20:35.142Z,39.66
2022-12-18T21:25:38.649Z,36.67
2022-12-18T21:30:45.495Z,35.04
2022-12-18T21:35:51.362Z,37.83
2022-12-18T21:40:54.689Z,36.23
2022-12-18T21:46:02.154Z,37.12
2022-12-18T21:51:08.152Z,47.59
2022-12-18T21:56:11.565Z,48.21
2022-12-18T22:01:16.902Z,50.97
2022-12-18T22:06:23.330Z,51.51
2022-12-18T22:11:26.837Z,52.77
2022-12-18T22:16:31.724Z,55.54
2022-12-18T22:21:36.820Z,50.45
2022-12-18T22:26:40.583Z,53.39
2022-12-18T22:31:45.844Z,48.85
2022-12-18T22:36:50.404Z,50.01
2022-12-18T22:41:53.743Z,51.89
2022-12-18T22:47:06.881Z,51.47
2022-12-18T22:52:13.136Z,50.98
2022-12-18T22:57:20.301Z,45.43
2022-12-18T23:02:27.347Z,46.57
2022-12-18T23:07:31.425Z,42.50
2022-12-18T23:12:37.826Z,45.93
2022-12-18T23:17:43.509Z,44.89
2022-12-18T23:22:46.834Z,47.17
2022-12-18T23:27:50.434Z,44.05
2022-12-18T23:32:57.468Z,42.04
2022-12-18T23:38:01.008Z,42.50
2022-12-18T23:43:04.540Z,40.97
2022-12-18T23:48:09.240Z,42.31
2022-12-18T23:53:12.708Z,42.04
2022-12-18T23:58:18.126Z,45.14
